Time;durP1;ratioP1;P1;durP2;ratioP2;P2;SDS_P1;SDS_P2;PMS_P1;PMS_P2;Temp;Humidity;BMP_temperature;BMP_pressure;BME280_temperature;BME280_humidity;BME280_pressure;Samples;Min_cycle;Max_cycle;Signal;HPM_P1;HPM_P2
2021/09/24 00:01:08;;;;;;;1.45;0.90;;;21.90;61.30;;;;;;5026591;28;20112;-69
2021/09/24 00:03:34;;;;;;;1.23;0.82;;;21.90;61.30;;;;;;5023344;28;20045;-68
2021/09/24 00:06:00;;;;;;;1.27;0.93;;;21.90;61.30;;;;;;5028061;28;20368;-68
2021/09/24 00:08:27;;;;;;;1.50;0.95;;;21.90;61.30;;;;;;5026018;28;20033;-68
2021/09/24 00:10:53;;;;;;;1.55;1.05;;;21.90;61.30;;;;;;5026295;28;20565;-69
2021/09/24 00:13:19;;;;;;;1.65;0.88;;;21.90;61.30;;;;;;5026211;28;20346;-68
2021/09/24 00:15:45;;;;;;;0.88;0.80;;;21.90;61.30;;;;;;5028702;28;20113;-68
2021/09/24 00:18:11;;;;;;;1.23;1.02;;;21.90;61.30;;;;;;5030385;28;20038;-68
2021/09/24 00:20:37;;;;;;;1.33;0.82;;;21.80;61.20;;;;;;5033057;28;20571;-68
2021/09/24 00:23:03;;;;;;;1.52;1.20;;;21.90;61.30;;;;;;5026306;28;20084;-68
2021/09/24 00:25:30;;;;;;;1.52;0.90;;;21.90;61.30;;;;;;5028062;28;20026;-68
2021/09/24 00:27:57;;;;;;;1.65;1.10;;;21.90;61.30;;;;;;5031813;28;20033;-68
2021/09/24 00:30:23;;;;;;;2.40;1.20;;;21.90;61.30;;;;;;5025614;28;20128;-68
2021/09/24 00:32:48;;;;;;;1.23;0.95;;;21.90;61.30;;;;;;5029360;28;20127;-68
2021/09/24 00:35:14;;;;;;;1.38;0.90;;;21.80;61.20;;;;;;5024372;28;20042;-68
2021/09/24 00:37:40;;;;;;;1.75;0.95;;;21.80;61.20;;;;;;5025229;28;20042;-68
2021/09/24 00:40:07;;;;;;;0.98;0.88;;;21.80;61.20;;;;;;5033380;28;20052;-68
2021/09/24 00:42:33;;;;;;;0.90;0.80;;;21.80;61.30;;;;;;5025082;28;20128;-69
2021/09/24 00:44:59;;;;;;;1.17;1.00;;;21.80;61.90;;;;;;5029599;28;20037;-69
2021/09/24 00:47:26;;;;;;;1.15;1.00;;;21.80;61.30;;;;;;5027133;28;20475;-69
2021/09/24 00:49:52;;;;;;;1.50;1.20;;;21.80;61.30;;;;;;5034013;28;20096;-68
2021/09/24 00:52:19;;;;;;;1.30;0.80;;;21.80;61.30;;;;;;5026204;28;20036;-68
2021/09/24 00:54:50;;;;;;;1.35;1.10;;;21.80;61.30;;;;;;5027122;28;20048;-68
2021/09/24 00:57:17;;;;;;;1.45;0.95;;;21.80;61.30;;;;;;5030088;28;20032;-68
2021/09/24 00:59:43;;;;;;;1.65;1.20;;;21.80;61.30;;;;;;5010867;28;20088;-68
2021/09/24 01:02:09;;;;;;;0.80;0.73;;;21.80;61.30;;;;;;5008768;28;20034;-68
2021/09/24 01:04:35;;;;;;;1.67;1.20;;;21.80;61.30;;;;;;5029566;28;20036;-69
2021/09/24 01:07:02;;;;;;;1.20;0.90;;;21.80;61.30;;;;;;5032769;28;20026;-69
2021/09/24 01:09:29;;;;;;;1.10;1.00;;;21.80;61.30;;;;;;5026288;28;20064;-69
2021/09/24 01:11:55;;;;;;;1.38;0.95;;;21.80;61.30;;;;;;5026905;28;20420;-69
2021/09/24 01:14:20;;;;;;;1.33;1.10;;;21.80;61.30;;;;;;5025771;28;20042;-69
2021/09/24 01:16:46;;;;;;;2.50;1.27;;;21.80;61.30;;;;;;5029974;28;20033;-69
2021/09/24 01:19:12;;;;;;;1.13;0.98;;;21.80;61.30;;;;;;5030369;28;20052;-69
2021/09/24 01:21:42;;;;;;;1.30;1.10;;;21.80;61.30;;;;;;5031342;28;20184;-68
2021/09/24 01:24:09;;;;;;;2.20;1.20;;;21.80;61.30;;;;;;5026781;28;20029;-68
2021/09/24 01:26:35;;;;;;;1.75;1.10;;;21.80;61.30;;;;;;5012687;28;20037;-68
2021/09/24 01:29:01;;;;;;;1.63;1.05;;;21.80;61.30;;;;;;5011555;28;20033;-68
2021/09/24 01:31:26;;;;;;;1.23;0.90;;;21.80;61.30;;;;;;5030769;28;20120;-68
2021/09/24 01:33:52;;;;;;;1.80;1.05;;;21.80;61.30;;;;;;5032597;28;20065;-69
2021/09/24 01:36:18;;;;;;;1.35;0.80;;;21.80;61.30;;;;;;5033507;28;20040;-69
2021/09/24 01:38:44;;;;;;;1.35;1.08;;;21.80;61.30;;;;;;5015543;28;20032;-69
2021/09/24 01:41:10;;;;;;;1.52;1.10;;;21.80;61.30;;;;;;5016112;28;20049;-68
2021/09/24 01:43:36;;;;;;;0.90;0.90;;;21.80;61.30;;;;;;5029844;28;20119;-68
2021/09/24 01:46:03;;;;;;;1.42;1.15;;;21.80;61.30;;;;;;5030996;28;20096;-69
2021/09/24 01:48:29;;;;;;;0.98;0.82;;;21.80;61.30;;;;;;5029328;28;20032;-68
2021/09/24 01:50:55;;;;;;;1.50;1.13;;;21.80;61.30;;;;;;5035291;28;20045;-68
2021/09/24 01:53:20;;;;;;;2.42;1.20;;;21.80;61.30;;;;;;5032916;28;20414;-68
2021/09/24 01:55:46;;;;;;;1.20;1.10;;;21.80;61.30;;;;;;5030646;28;20042;-69
2021/09/24 01:58:12;;;;;;;1.42;1.05;;;21.80;61.30;;;;;;5029467;28;20057;-68
2021/09/24 02:00:38;;;;;;;2.58;1.20;;;21.80;61.30;;;;;;5034527;28;20041;-68
2021/09/24 02:03:04;;;;;;;1.40;1.15;;;21.80;61.30;;;;;;5028856;28;20452;-68
2021/09/24 02:05:29;;;;;;;1.52;0.98;;;21.80;61.30;;;;;;5028815;28;20033;-68
2021/09/24 02:07:55;;;;;;;1.30;0.90;;;21.80;61.40;;;;;;5029409;28;20133;-68
2021/09/24 02:10:20;;;;;;;1.52;1.00;;;21.80;61.30;;;;;;5028209;28;20041;-68
2021/09/24 02:12:46;;;;;;;1.05;1.00;;;21.70;61.30;;;;;;5028149;28;20130;-68
2021/09/24 02:15:12;;;;;;;2.00;1.10;;;21.70;61.30;;;;;;5028106;28;20077;-68
2021/09/24 02:17:38;;;;;;;1.35;1.10;;;21.70;61.30;;;;;;5011639;28;20489;-68
2021/09/24 02:20:05;;;;;;;1.08;0.98;;;21.80;61.40;;;;;;5029029;28;20489;-68
2021/09/24 02:22:31;;;;;;;1.65;1.10;;;21.80;61.40;;;;;;5026360;28;20035;-68
2021/09/24 02:24:57;;;;;;;0.93;0.90;;;21.70;61.30;;;;;;5029064;28;20045;-68
2021/09/24 02:27:22;;;;;;;2.38;1.20;;;21.70;61.30;;;;;;5027027;28;20037;-69
2021/09/24 02:29:48;;;;;;;1.65;1.02;;;21.70;61.30;;;;;;5031107;28;20112;-68
2021/09/24 02:32:14;;;;;;;1.17;0.88;;;21.70;61.30;;;;;;5027842;28;20116;-68
2021/09/24 02:34:40;;;;;;;1.50;1.30;;;21.70;61.30;;;;;;5029031;28;20488;-68
2021/09/24 02:37:05;;;;;;;1.05;0.82;;;21.70;61.30;;;;;;5030507;28;20042;-68
2021/09/24 02:39:31;;;;;;;2.03;1.00;;;21.80;61.40;;;;;;5030134;28;20120;-68
2021/09/24 02:41:57;;;;;;;1.48;0.93;;;21.70;61.30;;;;;;5030380;28;20072;-68
2021/09/24 02:44:23;;;;;;;1.55;0.88;;;21.80;61.40;;;;;;5027764;28;20041;-68
2021/09/24 02:46:48;;;;;;;1.60;0.93;;;21.70;61.40;;;;;;5027772;28;20052;-68
2021/09/24 02:49:14;;;;;;;1.40;1.05;;;21.70;61.40;;;;;;5029856;28;20076;-68
2021/09/24 02:51:40;;;;;;;1.27;1.17;;;21.70;61.40;;;;;;5026404;28;20065;-68
2021/09/24 02:54:05;;;;;;;1.30;0.93;;;21.70;61.40;;;;;;5029582;28;20032;-68
2021/09/24 02:56:31;;;;;;;1.08;0.82;;;21.80;61.40;;;;;;5028985;28;20068;-68
2021/09/24 02:58:57;;;;;;;2.10;1.00;;;21.70;61.40;;;;;;5028072;28;20555;-68
2021/09/24 03:01:23;;;;;;;1.25;0.88;;;21.70;61.40;;;;;;5027300;28;20388;-68
2021/09/24 03:03:48;;;;;;;2.13;0.90;;;21.70;61.40;;;;;;5029208;28;20092;-69
2021/09/24 03:06:14;;;;;;;2.30;1.00;;;21.80;61.40;;;;;;5029220;28;20038;-67
2021/09/24 03:08:40;;;;;;;1.88;0.98;;;21.70;61.40;;;;;;5027295;28;20528;-68
2021/09/24 03:11:06;;;;;;;1.10;1.00;;;21.70;61.40;;;;;;5028245;28;20483;-68
2021/09/24 03:13:31;;;;;;;1.55;1.38;;;21.70;62.00;;;;;;5027522;28;20468;-67
2021/09/24 03:15:58;;;;;;;2.30;1.17;;;21.70;61.40;;;;;;5028679;28;20124;-68
2021/09/24 03:18:24;;;;;;;1.75;1.20;;;21.70;61.40;;;;;;5028208;28;20060;-67
2021/09/24 03:20:51;;;;;;;1.13;0.90;;;21.70;61.40;;;;;;5028864;28;20198;-68
2021/09/24 03:23:19;;;;;;;1.77;0.98;;;21.70;61.40;;;;;;5028798;28;20041;-68
2021/09/24 03:25:46;;;;;;;1.65;1.02;;;21.70;61.50;;;;;;5027612;28;20120;-68
2021/09/24 03:28:13;;;;;;;1.10;0.90;;;21.70;61.40;;;;;;5027605;28;20052;-67
2021/09/24 03:30:39;;;;;;;1.30;1.05;;;21.70;61.50;;;;;;5026932;28;20469;-68
2021/09/24 03:33:05;;;;;;;1.38;0.80;;;21.70;61.50;;;;;;5011870;28;20116;-67
2021/09/24 03:35:30;;;;;;;1.23;1.00;;;21.70;61.50;;;;;;5027261;28;20579;-68
2021/09/24 03:37:56;;;;;;;1.00;0.90;;;21.70;61.50;;;;;;5029188;28;20057;-68
2021/09/24 03:40:22;;;;;;;1.52;1.10;;;21.70;61.50;;;;;;5026472;28;20212;-68
2021/09/24 03:42:47;;;;;;;1.55;0.90;;;21.70;61.50;;;;;;5028799;28;20373;-68
2021/09/24 03:45:13;;;;;;;1.45;1.20;;;21.70;61.50;;;;;;5031087;28;20033;-68
2021/09/24 03:47:39;;;;;;;1.10;1.00;;;21.70;61.60;;;;;;5026367;28;20029;-68
2021/09/24 03:50:05;;;;;;;1.33;0.90;;;21.70;61.50;;;;;;5029782;28;20038;-68
2021/09/24 03:52:31;;;;;;;1.20;1.00;;;21.70;61.50;;;;;;5025871;28;20503;-68
2021/09/24 03:54:56;;;;;;;1.17;1.00;;;21.70;61.60;;;;;;5027363;28;20388;-68
2021/09/24 03:57:22;;;;;;;1.35;1.25;;;21.70;61.50;;;;;;5026241;28;20049;-68
2021/09/24 03:59:48;;;;;;;1.55;1.00;;;21.70;61.50;;;;;;5009018;28;20136;-68
2021/09/24 04:02:13;;;;;;;1.48;1.10;;;21.70;62.20;;;;;;5029205;28;20094;-68
2021/09/24 04:04:39;;;;;;;1.00;0.95;;;21.70;61.50;;;;;;5026708;28;20049;-68
2021/09/24 04:07:05;;;;;;;1.58;0.88;;;21.70;61.50;;;;;;5026784;28;20045;-68
2021/09/24 04:09:31;;;;;;;1.48;1.00;;;21.70;61.60;;;;;;5025921;28;20066;-68
2021/09/24 04:11:57;;;;;;;2.00;1.10;;;21.70;61.60;;;;;;5025834;28;20069;-68
2021/09/24 04:14:22;;;;;;;1.75;1.05;;;21.70;61.60;;;;;;5028169;28;20053;-68
2021/09/24 04:16:48;;;;;;;1.55;1.00;;;21.70;61.60;;;;;;5023387;28;20485;-68
2021/09/24 04:19:14;;;;;;;1.48;1.02;;;21.70;61.60;;;;;;5023044;28;20534;-68
2021/09/24 04:21:39;;;;;;;1.67;1.17;;;21.70;61.70;;;;;;5029126;28;20397;-68
2021/09/24 04:24:05;;;;;;;1.50;1.10;;;21.70;61.60;;;;;;5033972;28;20049;-68
2021/09/24 04:26:31;;;;;;;1.35;1.10;;;21.70;61.60;;;;;;5027133;28;20519;-68
2021/09/24 04:28:56;;;;;;;1.95;1.05;;;21.70;61.60;;;;;;5026875;28;20144;-68
2021/09/24 04:31:23;;;;;;;1.73;1.00;;;21.70;61.60;;;;;;5028616;28;20049;-69
2021/09/24 04:33:49;;;;;;;1.35;1.00;;;21.70;61.60;;;;;;5026665;28;20042;-68
2021/09/24 04:36:14;;;;;;;1.85;1.40;;;21.70;61.60;;;;;;5026127;28;20042;-69
2021/09/24 04:38:40;;;;;;;1.02;0.90;;;21.70;61.60;;;;;;5026224;28;20060;-69
2021/09/24 04:41:06;;;;;;;1.90;1.08;;;21.70;61.60;;;;;;5028331;28;20037;-68
2021/09/24 04:43:31;;;;;;;2.28;1.10;;;21.70;61.60;;;;;;5026264;28;20560;-67
2021/09/24 04:45:57;;;;;;;1.77;1.20;;;21.70;61.60;;;;;;5029070;28;20034;-68
2021/09/24 04:48:23;;;;;;;2.15;1.50;;;21.70;61.70;;;;;;5027010;28;20068;-69
2021/09/24 04:50:48;;;;;;;1.52;1.15;;;21.70;61.60;;;;;;5027703;28;20046;-68
2021/09/24 04:53:14;;;;;;;1.90;1.35;;;21.70;61.70;;;;;;5033797;28;20045;-68
2021/09/24 04:55:40;;;;;;;1.30;1.08;;;21.60;61.60;;;;;;5030104;28;20046;-68
2021/09/24 04:58:05;;;;;;;1.50;1.38;;;21.70;61.70;;;;;;5033434;28;20124;-68
2021/09/24 05:00:31;;;;;;;1.25;1.15;;;21.70;61.70;;;;;;5029111;28;20053;-69
2021/09/24 05:02:56;;;;;;;1.50;1.02;;;21.60;61.60;;;;;;5008955;28;20038;-69
2021/09/24 05:05:22;;;;;;;1.50;1.40;;;21.70;61.70;;;;;;5034354;28;20045;-68
2021/09/24 05:07:49;;;;;;;1.67;1.17;;;21.60;61.70;;;;;;5034999;28;20068;-69
2021/09/24 05:10:15;;;;;;;1.42;1.33;;;21.70;61.80;;;;;;5029143;28;20041;-68
2021/09/24 05:12:41;;;;;;;1.75;1.30;;;21.70;61.80;;;;;;5038987;28;20054;-68
2021/09/24 05:15:07;;;;;;;1.98;1.38;;;21.70;61.90;;;;;;5028969;28;20116;-68
2021/09/24 05:17:33;;;;;;;1.95;1.63;;;21.70;61.90;;;;;;5031099;28;20119;-68
2021/09/24 05:19:59;;;;;;;1.50;1.40;;;21.60;61.80;;;;;;5031039;28;20041;-69
2021/09/24 05:22:25;;;;;;;2.58;1.48;;;21.70;62.00;;;;;;5014325;28;20559;-69
2021/09/24 05:24:52;;;;;;;1.65;1.55;;;21.60;61.90;;;;;;5031182;28;20038;-69
2021/09/24 05:27:17;;;;;;;1.85;1.75;;;21.60;61.90;;;;;;5015672;28;20049;-69
2021/09/24 05:29:43;;;;;;;2.10;1.63;;;21.60;61.90;;;;;;5032974;28;20050;-68
2021/09/24 05:32:13;;;;;;;2.03;1.83;;;21.60;61.90;;;;;;5030600;28;20055;-71
2021/09/24 05:34:40;;;;;;;2.90;1.80;;;21.60;61.90;;;;;;5030100;28;20365;-68
2021/09/24 05:37:06;;;;;;;2.53;2.30;;;21.60;61.90;;;;;;5030401;28;20044;-68
2021/09/24 05:39:31;;;;;;;3.20;2.40;;;21.70;62.00;;;;;;5039354;28;20041;-69
2021/09/24 05:41:58;;;;;;;3.53;2.83;;;21.70;62.10;;;;;;5030064;28;20038;-68
2021/09/24 05:44:24;;;;;;;3.67;2.75;;;21.60;62.10;;;;;;5031098;28;20491;-68
2021/09/24 05:46:49;;;;;;;3.25;2.90;;;21.70;62.20;;;;;;5034037;28;20118;-68
2021/09/24 05:49:15;;;;;;;4.03;3.08;;;21.60;62.20;;;;;;5032629;28;20045;-68
2021/09/24 05:51:41;;;;;;;4.32;3.53;;;21.60;62.30;;;;;;5028242;28;20046;-69
2021/09/24 05:54:07;;;;;;;3.97;3.42;;;21.60;62.40;;;;;;5027267;28;20033;-68
2021/09/24 05:56:32;;;;;;;4.30;3.70;;;21.60;62.40;;;;;;5025803;28;20100;-68
2021/09/24 05:58:58;;;;;;;5.53;4.20;;;21.60;62.40;;;;;;5009447;28;20041;-69
2021/09/24 06:01:24;;;;;;;4.88;4.03;;;21.60;62.50;;;;;;5027975;28;20041;-68
2021/09/24 06:03:51;;;;;;;4.00;3.28;;;21.60;62.50;;;;;;5030232;28;20045;-68
2021/09/24 06:06:17;;;;;;;6.47;4.03;;;21.70;62.70;;;;;;5032073;28;20033;-68
2021/09/24 06:08:42;;;;;;;6.00;4.22;;;21.60;62.70;;;;;;5034373;28;20559;-66
2021/09/24 06:11:08;;;;;;;5.80;3.95;;;21.60;62.70;;;;;;5033103;28;20044;-66
2021/09/24 06:13:34;;;;;;;6.32;4.32;;;21.60;62.80;;;;;;5029423;28;20390;-67
2021/09/24 06:15:59;;;;;;;5.57;4.53;;;21.60;62.90;;;;;;5014058;28;20403;-67
2021/09/24 06:18:29;;;;;;;6.68;4.72;;;21.60;62.90;;;;;;5028596;28;20041;-69
2021/09/24 06:20:57;;;;;;;7.47;4.90;;;21.60;62.90;;;;;;5028829;28;20428;-67
2021/09/24 06:23:23;;;;;;;7.85;5.07;;;21.60;63.00;;;;;;5026772;28;20365;-67
2021/09/24 06:25:48;;;;;;;7.20;4.72;;;21.60;63.00;;;;;;5029269;28;20030;-67
2021/09/24 06:28:14;;;;;;;5.80;5.00;;;21.60;63.10;;;;;;5029261;28;20049;-67
2021/09/24 06:30:40;;;;;;;7.53;5.07;;;21.60;63.10;;;;;;5028853;28;20116;-67
2021/09/24 06:33:05;;;;;;;7.32;5.85;;;21.60;63.10;;;;;;5032859;28;20465;-67
2021/09/24 06:35:31;;;;;;;8.02;5.53;;;21.60;63.20;;;;;;5030626;28;20353;-67
2021/09/24 06:37:57;;;;;;;7.57;5.43;;;21.60;63.20;;;;;;5031448;28;20112;-67
2021/09/24 06:40:23;;;;;;;7.90;5.70;;;21.60;63.30;;;;;;5028662;28;20049;-67
2021/09/24 06:42:48;;;;;;;7.68;5.78;;;21.60;63.30;;;;;;5012890;28;20523;-67
2021/09/24 06:45:14;;;;;;;8.52;6.10;;;21.60;63.20;;;;;;5029766;28;20033;-66
2021/09/24 06:47:41;;;;;;;7.18;5.70;;;21.60;63.30;;;;;;5027896;28;20064;-64
2021/09/24 06:50:08;;;;;;;7.68;5.30;;;21.60;63.30;;;;;;5011067;28;20029;-61
2021/09/24 06:52:34;;;;;;;10.63;5.80;;;21.60;63.40;;;;;;5026057;28;20034;-62
2021/09/24 06:55:00;;;;;;;9.70;5.80;;;21.60;63.50;;;;;;5031658;28;20188;-61
2021/09/24 06:57:26;;;;;;;8.10;5.75;;;21.60;63.60;;;;;;5027236;28;20041;-63
2021/09/24 06:59:52;;;;;;;8.82;5.40;;;21.60;63.70;;;;;;5028822;28;20060;-59
2021/09/24 07:02:18;;;;;;;9.13;6.00;;;21.60;63.70;;;;;;5027290;28;20428;-58
2021/09/24 07:04:44;;;;;;;7.57;5.47;;;21.60;63.70;;;;;;5028620;28;20041;-60
2021/09/24 07:07:09;;;;;;;9.38;5.72;;;21.60;63.70;;;;;;5031018;28;20155;-60
2021/09/24 07:09:35;;;;;;;9.05;6.03;;;21.60;63.70;;;;;;5027642;28;20551;-58
2021/09/24 07:12:01;;;;;;;8.80;5.88;;;21.60;63.70;;;;;;5027329;28;20443;-61
2021/09/24 07:14:31;;;;;;;7.57;5.00;;;21.60;63.70;;;;;;5026768;28;20053;-61
2021/09/24 07:16:57;;;;;;;9.82;5.82;;;21.60;63.70;;;;;;5025542;28;20400;-61
2021/09/24 07:19:23;;;;;;;11.60;6.47;;;21.60;63.70;;;;;;5029412;28;20526;-62
2021/09/24 07:21:48;;;;;;;9.32;5.47;;;21.60;63.70;;;;;;5026557;28;20030;-61
2021/09/24 07:24:16;;;;;;;7.30;5.78;;;21.60;63.70;;;;;;5007792;28;20746;-63
2021/09/24 07:26:42;;;;;;;9.68;5.57;;;21.60;63.80;;;;;;5008365;28;20045;-61
2021/09/24 07:29:07;;;;;;;9.52;5.35;;;21.60;63.80;;;;;;5030624;28;20041;-62
2021/09/24 07:31:33;;;;;;;8.48;5.82;;;21.60;63.80;;;;;;5028929;28;20030;-62
2021/09/24 07:33:59;;;;;;;12.45;5.53;;;21.60;63.80;;;;;;5023443;28;20091;-63
2021/09/24 07:36:25;;;;;;;8.95;5.75;;;21.70;63.90;;;;;;5025292;28;20665;-62
2021/09/24 07:38:51;;;;;;;6.95;5.28;;;21.60;63.90;;;;;;5026910;28;20498;-62
2021/09/24 07:41:19;;;;;;;8.70;5.65;;;21.70;64.00;;;;;;5026844;28;20115;-63
2021/09/24 07:43:48;;;;;;;9.20;6.05;;;21.70;64.00;;;;;;5025648;28;20562;-61
2021/09/24 07:46:13;;;;;;;7.50;5.78;;;21.60;64.00;;;;;;5024884;28;20499;-57
2021/09/24 07:48:42;;;;;;;6.82;4.88;;;21.60;64.00;;;;;;5027020;28;20060;-56
2021/09/24 07:51:08;;;;;;;8.35;5.13;;;21.60;64.00;;;;;;5030103;28;20488;-55
2021/09/24 07:53:34;;;;;;;7.15;5.10;;;21.60;63.90;;;;;;5031710;28;20041;-55
2021/09/24 07:55:59;;;;;;;7.90;5.40;;;21.70;63.90;;;;;;5032609;28;20515;-55
2021/09/24 07:58:25;;;;;;;7.00;4.97;;;21.70;63.90;;;;;;5036590;28;20604;-57
2021/09/24 08:00:51;;;;;;;6.68;5.15;;;21.70;63.90;;;;;;5030816;28;20046;-55
2021/09/24 08:03:16;;;;;;;7.32;4.70;;;21.70;63.90;;;;;;5027634;28;20069;-53
2021/09/24 08:05:42;;;;;;;5.85;4.35;;;21.70;63.90;;;;;;5026666;28;20067;-55
2021/09/24 08:08:07;;;;;;;8.63;5.18;;;21.70;63.80;;;;;;5030304;28;20441;-54
2021/09/24 08:10:33;;;;;;;6.20;4.88;;;21.70;63.90;;;;;;5028384;28;20037;-56
2021/09/24 08:12:59;;;;;;;7.55;5.05;;;21.70;63.80;;;;;;5028438;28;20045;-55
2021/09/24 08:15:25;;;;;;;6.40;5.28;;;21.70;63.90;;;;;;5026972;28;20076;-57
2021/09/24 08:17:52;;;;;;;7.22;4.57;;;21.70;63.90;;;;;;5027614;28;20061;-56
2021/09/24 08:20:18;;;;;;;7.25;5.05;;;21.70;63.90;;;;;;5013233;28;20037;-56
2021/09/24 08:22:44;;;;;;;6.00;4.88;;;21.70;63.90;;;;;;5026926;28;20125;-56
2021/09/24 08:25:13;;;;;;;6.63;4.63;;;21.70;63.90;;;;;;5028071;28;20131;-54
2021/09/24 08:27:39;;;;;;;7.15;5.45;;;21.70;63.90;;;;;;5034090;28;20026;-56
2021/09/24 08:30:08;;;;;;;6.13;4.88;;;21.70;63.90;;;;;;5033940;28;20556;-54
2021/09/24 08:32:37;;;;;;;7.93;5.50;;;21.70;63.90;;;;;;5027955;28;20033;-53
2021/09/24 08:35:08;;;;;;;7.55;4.85;;;21.70;63.90;;;;;;5031164;28;20049;-52
2021/09/24 08:37:34;;;;;;;6.10;4.68;;;21.70;63.90;;;;;;5032256;28;20129;-53
2021/09/24 08:39:59;;;;;;;8.32;5.85;;;21.70;63.80;;;;;;5034245;28;20041;-55
2021/09/24 08:42:26;;;;;;;6.43;5.03;;;21.70;63.90;;;;;;5023970;28;20483;-53
2021/09/24 08:44:52;;;;;;;7.00;5.22;;;21.70;63.90;;;;;;5035885;28;20033;-53
2021/09/24 08:47:18;;;;;;;7.68;5.32;;;21.70;63.90;;;;;;5029777;28;20056;-53
2021/09/24 08:49:45;;;;;;;8.35;5.30;;;21.70;63.90;;;;;;5030821;28;20445;-53
2021/09/24 08:52:11;;;;;;;7.90;5.70;;;21.70;64.60;;;;;;5025759;28;20374;-52
2021/09/24 08:54:37;;;;;;;9.07;6.65;;;21.70;64.00;;;;;;5034323;28;20049;-53
2021/09/24 08:57:03;;;;;;;9.43;6.68;;;21.70;64.10;;;;;;5032371;28;20447;-54
2021/09/24 08:59:30;;;;;;;10.02;6.60;;;21.70;64.10;;;;;;5037603;28;20049;-53
2021/09/24 09:01:59;;;;;;;10.88;7.63;;;21.70;64.10;;;;;;5014839;28;20070;-56
2021/09/24 09:04:42;;;;;;;12.77;9.25;;;21.70;64.20;;;;;;5031132;28;20121;-53
2021/09/24 09:07:10;;;;;;;12.15;7.88;;;21.70;64.60;;;;;;5029849;28;20440;-51
2021/09/24 09:09:38;;;;;;;17.42;11.23;;;21.70;64.70;;;;;;5035110;28;20034;-52
2021/09/24 09:12:12;;;;;;;22.10;13.40;;;21.70;65.30;;;;;;5030755;28;20042;-50
2021/09/24 09:14:39;;;;;;;26.35;15.30;;;21.70;65.80;;;;;;5024017;28;20527;-52
2021/09/24 09:17:31;;;;;;;21.40;14.20;;;21.70;66.30;;;;;;5035178;28;20033;-50
2021/09/24 09:20:20;;;;;;;22.40;14.10;;;21.70;66.70;;;;;;5026658;28;20041;-51
2021/09/24 09:22:49;;;;;;;23.08;15.32;;;21.60;66.50;;;;;;5028607;28;20107;-55
2021/09/24 09:25:23;;;;;;;19.98;14.77;;;21.60;67.10;;;;;;5031170;28;20132;-52
2021/09/24 09:27:49;;;;;;;23.40;15.93;;;21.60;67.40;;;;;;5035516;28;20033;-54
2021/09/24 09:30:15;;;;;;;26.67;18.52;;;21.60;67.80;;;;;;5035923;28;20044;-57
2021/09/24 09:33:01;;;;;;;25.90;16.73;;;21.50;68.20;;;;;;5031171;28;20049;-58
2021/09/24 09:35:29;;;;;;;24.48;15.60;;;21.50;68.30;;;;;;5030438;28;20450;-57
2021/09/24 09:37:56;;;;;;;20.42;14.57;;;21.40;68.20;;;;;;5011689;28;20045;-57
2021/09/24 09:40:22;;;;;;;23.45;15.07;;;21.50;68.40;;;;;;5029587;28;20038;-55
2021/09/24 09:42:49;;;;;;;20.63;14.68;;;21.50;68.40;;;;;;5030811;28;20121;-57
2021/09/24 09:45:17;;;;;;;20.88;14.13;;;21.40;68.30;;;;;;5030936;28;20485;-56
2021/09/24 09:47:47;;;;;;;20.98;15.32;;;21.50;68.40;;;;;;5028250;28;20050;-57
2021/09/24 09:50:22;;;;;;;18.65;13.52;;;21.50;68.50;;;;;;5034221;28;20037;-56
2021/09/24 09:53:15;;;;;;;22.70;15.38;;;21.50;69.10;;;;;;4997338;28;20061;-56
2021/09/24 09:55:58;;;;;;;17.40;13.55;;;21.50;68.70;;;;;;5031821;28;20070;-57
2021/09/24 09:58:27;;;;;;;16.92;12.95;;;21.40;68.60;;;;;;5035889;28;20079;-59
2021/09/24 10:00:53;;;;;;;17.63;13.25;;;21.40;68.60;;;;;;5028744;28;20085;-58
2021/09/24 10:03:46;;;;;;;17.63;12.50;;;21.50;68.60;;;;;;5032313;28;20183;-58
2021/09/24 10:06:19;;;;;;;15.65;11.27;;;21.50;68.40;;;;;;5000263;28;20060;-59
2021/09/24 10:08:46;;;;;;;16.10;10.80;;;21.50;68.20;;;;;;5013687;28;20045;-64
2021/09/24 10:11:14;;;;;;;13.82;11.30;;;21.60;68.10;;;;;;5010393;28;20056;-62
2021/09/24 10:13:58;;;;;;;14.75;10.98;;;21.60;67.90;;;;;;5011939;28;20033;-66
2021/09/24 10:16:27;;;;;;;15.70;12.65;;;21.60;68.20;;;;;;5034695;28;20037;-65
2021/09/24 10:18:53;;;;;;;13.05;11.10;;;21.70;68.40;;;;;;5029388;28;20381;-64
2021/09/24 10:21:19;;;;;;;12.55;9.85;;;21.60;68.10;;;;;;5026654;28;20042;-67
2021/09/24 10:23:46;;;;;;;12.70;9.70;;;21.70;68.00;;;;;;5029568;28;20484;-66
2021/09/24 10:26:53;;;;;;;10.90;9.00;;;21.70;67.80;;;;;;5032817;28;20102;-64
2021/09/24 10:29:29;;;;;;;12.43;9.93;;;21.70;68.10;;;;;;5009798;28;20099;-64
2021/09/24 10:31:59;;;;;;;13.40;11.10;;;21.70;68.20;;;;;;5028767;28;20034;-62
2021/09/24 10:34:29;;;;;;;11.70;10.00;;;21.70;68.10;;;;;;5009707;28;20034;-62
2021/09/24 10:37:17;;;;;;;10.18;8.38;;;21.70;68.10;;;;;;5031835;28;20030;-69
2021/09/24 10:39:48;;;;;;;10.45;8.27;;;21.70;68.10;;;;;;5010160;28;20046;-69
2021/09/24 10:42:23;;;;;;;10.70;8.20;;;21.70;68.00;;;;;;5013054;28;20044;-68
2021/09/24 10:45:35;;;;;;;8.15;6.97;;;21.70;67.70;;;;;;5010344;28;20033;-67
2021/09/24 10:48:16;;;;;;;8.23;6.70;;;21.80;67.70;;;;;;5009408;28;20029;-68
2021/09/24 10:50:51;;;;;;;8.03;7.17;;;21.80;67.60;;;;;;5027201;28;20045;-67
2021/09/24 10:53:26;;;;;;;8.70;7.22;;;21.80;67.40;;;;;;5031007;28;20032;-67
2021/09/24 10:55:54;;;;;;;10.43;7.22;;;21.80;67.30;;;;;;5020568;28;20543;-67
2021/09/24 10:58:23;;;;;;;8.77;7.30;;;21.80;67.20;;;;;;5026699;28;20045;-67
2021/09/24 11:00:50;;;;;;;8.05;6.85;;;21.90;67.10;;;;;;5033390;28;20056;-67
2021/09/24 11:03:22;;;;;;;10.70;6.90;;;21.90;67.10;;;;;;5029459;28;20438;-67
2021/09/24 11:06:04;;;;;;;7.95;6.70;;;21.90;66.90;;;;;;5032193;28;20503;-67
2021/09/24 11:08:32;;;;;;;6.60;5.97;;;21.90;66.90;;;;;;5027951;28;20132;-68
2021/09/24 11:11:23;;;;;;;8.52;6.25;;;21.90;66.80;;;;;;5031313;28;20038;-67
2021/09/24 11:13:54;;;;;;;6.17;5.57;;;22.00;66.70;;;;;;5023247;28;20405;-68
2021/09/24 11:16:37;;;;;;;6.18;5.53;;;22.00;67.30;;;;;;5023498;28;20083;-68
2021/09/24 11:19:03;;;;;;;6.72;5.72;;;22.00;66.60;;;;;;5027435;28;20112;-67
2021/09/24 11:21:38;;;;;;;7.75;6.05;;;22.00;66.50;;;;;;5021654;28;20496;-67
2021/09/24 11:24:27;;;;;;;6.28;5.68;;;22.00;66.50;;;;;;5020779;28;20029;-67
2021/09/24 11:27:01;;;;;;;6.22;5.63;;;22.00;66.30;;;;;;5025523;28;20485;-67
2021/09/24 11:29:30;;;;;;;6.57;5.78;;;22.10;66.30;;;;;;5026862;28;20029;-67
2021/09/24 11:31:55;;;;;;;5.88;5.28;;;22.10;66.20;;;;;;5025791;28;20040;-67
2021/09/24 11:34:33;;;;;;;6.15;4.90;;;22.10;66.10;;;;;;5025293;28;20025;-67
2021/09/24 11:37:08;;;;;;;6.90;6.20;;;22.10;66.00;;;;;;5025909;28;20567;-67
2021/09/24 11:39:36;;;;;;;5.32;4.82;;;22.10;66.60;;;;;;5025846;28;20084;-67
2021/09/24 11:42:09;;;;;;;6.40;5.80;;;22.10;65.90;;;;;;5009791;28;20037;-67
2021/09/24 11:44:36;;;;;;;6.03;5.43;;;22.20;65.90;;;;;;5024798;28;20036;-68
2021/09/24 11:47:24;;;;;;;5.88;5.28;;;22.20;65.80;;;;;;5010036;28;20512;-67
2021/09/24 11:50:03;;;;;;;5.72;4.85;;;22.20;65.80;;;;;;5025584;28;20033;-67
2021/09/24 11:52:43;;;;;;;5.78;5.18;;;22.20;65.70;;;;;;5026077;28;20420;-67
2021/09/24 11:55:23;;;;;;;6.63;6.00;;;22.20;65.70;;;;;;5027735;28;20388;-67
2021/09/24 11:58:02;;;;;;;6.03;5.43;;;22.20;65.70;;;;;;5027400;28;20068;-66
2021/09/24 12:00:34;;;;;;;8.98;5.47;;;22.20;65.70;;;;;;5028622;28;20046;-66
2021/09/24 12:03:32;;;;;;;6.20;5.57;;;22.20;65.60;;;;;;5029716;28;20033;-66
2021/09/24 12:06:10;;;;;;;6.15;5.65;;;22.20;65.60;;;;;;5027247;28;20029;-65
2021/09/24 12:08:45;;;;;;;7.07;6.38;;;22.30;65.90;;;;;;5024666;28;20033;-65
2021/09/24 12:11:25;;;;;;;6.40;5.68;;;22.30;66.00;;;;;;5028115;28;20493;-65
2021/09/24 12:13:56;;;;;;;6.47;5.55;;;22.30;66.00;;;;;;5025848;28;20037;-65
2021/09/24 12:16:24;;;;;;;7.45;6.15;;;22.30;65.90;;;;;;5028576;28;20377;-65
2021/09/24 12:18:56;;;;;;;6.28;5.68;;;22.30;65.90;;;;;;5029166;28;20033;-65
2021/09/24 12:21:46;;;;;;;6.65;6.00;;;22.30;65.90;;;;;;5021170;28;20045;-65
2021/09/24 12:24:34;;;;;;;6.60;6.00;;;22.40;65.90;;;;;;5027724;28;20065;-64
2021/09/24 12:27:09;;;;;;;8.75;7.28;;;22.30;65.80;;;;;;5023002;28;20092;-65
2021/09/24 12:29:39;;;;;;;7.07;6.22;;;22.40;65.80;;;;;;5024252;28;20032;-64
2021/09/24 12:32:10;;;;;;;7.63;6.65;;;22.40;65.70;;;;;;5025733;28;20025;-65
2021/09/24 12:34:38;;;;;;;7.18;6.57;;;22.40;65.60;;;;;;5028089;28;20029;-65
2021/09/24 12:37:04;;;;;;;9.65;6.10;;;22.40;65.60;;;;;;5027046;28;20416;-64
2021/09/24 12:39:35;;;;;;;9.50;8.60;;;22.40;65.50;;;;;;5027107;28;20049;-59
2021/09/24 12:42:12;;;;;;;9.48;8.32;;;22.40;65.20;;;;;;5027681;28;20623;-59
2021/09/24 12:44:51;;;;;;;9.15;8.25;;;22.40;65.20;;;;;;5027132;28;20046;-59
2021/09/24 12:48:40;;;;;;;11.88;8.38;;;22.40;64.60;;;;;;5113412;27;20398;-67
2021/09/24 12:51:07;;;;;;;8.15;7.13;;;22.40;65.00;;;;;;5096285;28;20038;-66
2021/09/24 12:53:38;;;;;;;8.27;7.38;;;22.40;65.00;;;;;;5111389;28;20035;-66